createdAt,value
2023-03-18T00:05:26.041Z,56.57
2023-03-18T00:07:56.812Z,57.05
2023-03-18T00:10:35.592Z,56.43
2023-03-18T00:13:10.952Z,56.58
2023-03-18T00:15:39.413Z,56.72
2023-03-18T00:18:11.833Z,56.95
2023-03-18T00:21:11.185Z,56.36
2023-03-18T00:23:40.881Z,57.00
2023-03-18T00:26:21.572Z,57.20
2023-03-18T00:28:53.575Z,57.13
2023-03-18T00:31:41.585Z,57.13
2023-03-18T00:34:09.932Z,56.82
2023-03-18T00:36:40.457Z,57.09
2023-03-18T00:39:09.942Z,56.73
2023-03-18T00:41:40.289Z,57.43
2023-03-18T00:44:07.960Z,57.23
2023-03-18T00:46:55.185Z,57.58
2023-03-18T00:49:24.077Z,57.36
2023-03-18T00:52:11.577Z,57.94
2023-03-18T00:54:40.628Z,57.77
2023-03-18T00:57:08.395Z,57.45
2023-03-18T00:59:37.656Z,57.98
2023-03-18T01:02:05.299Z,57.71
2023-03-18T01:04:34.202Z,58.02
2023-03-18T01:07:02.240Z,57.73
2023-03-18T01:09:32.009Z,58.07
2023-03-18T01:11:59.798Z,58.53
2023-03-18T01:14:28.669Z,58.01
2023-03-18T01:16:56.431Z,58.03
2023-03-18T01:19:24.568Z,58.32
2023-03-18T01:21:55.265Z,58.21
2023-03-18T01:24:29.109Z,58.14
2023-03-18T01:27:01.231Z,58.36
2023-03-18T01:29:29.182Z,58.02
2023-03-18T01:31:57.627Z,58.60
2023-03-18T01:34:25.526Z,58.00
2023-03-18T01:36:54.994Z,58.34
2023-03-18T01:39:24.328Z,58.28
2023-03-18T01:41:52.448Z,58.35
2023-03-18T01:44:27.819Z,58.61
2023-03-18T01:46:57.602Z,58.57
2023-03-18T01:49:50.594Z,58.92
2023-03-18T01:52:25.626Z,59.02
2023-03-18T01:55:08.039Z,59.01
2023-03-18T01:57:37.043Z,58.91
2023-03-18T02:00:08.080Z,59.24
2023-03-18T02:05:37.818Z,59.12
2023-03-18T02:08:05.218Z,59.25
2023-03-18T02:10:33.028Z,59.25
2023-03-18T02:13:10.238Z,59.58
2023-03-18T02:15:48.962Z,60.30
2023-03-18T02:18:22.393Z,59.99
2023-03-18T02:21:09.149Z,60.09
2023-03-18T02:23:54.750Z,59.76
2023-03-18T02:26:41.454Z,60.58
2023-03-18T02:29:12.304Z,60.31
2023-03-18T02:31:44.045Z,60.25
2023-03-18T02:34:13.391Z,60.36
2023-03-18T02:36:41.941Z,60.37
2023-03-18T02:39:14.365Z,60.44
2023-03-18T02:41:41.704Z,60.15
2023-03-18T02:44:12.472Z,60.54
2023-03-18T02:46:56.989Z,60.67
2023-03-18T02:49:26.792Z,60.94
2023-03-18T02:51:54.973Z,60.99
2023-03-18T02:54:34.316Z,61.28
2023-03-18T02:57:03.608Z,61.53
2023-03-18T02:59:33.004Z,61.67
2023-03-18T03:02:01.816Z,61.32
2023-03-18T03:04:29.471Z,61.24
2023-03-18T03:06:59.400Z,61.54
2023-03-18T03:09:40.141Z,61.30
2023-03-18T03:12:11.810Z,61.15
2023-03-18T03:14:41.364Z,61.49
2023-03-18T03:17:10.115Z,61.56
2023-03-18T03:19:37.799Z,61.46
2023-03-18T03:22:06.232Z,61.39
2023-03-18T03:24:34.005Z,61.10
2023-03-18T03:27:04.290Z,60.98
2023-03-18T03:29:31.726Z,61.11
2023-03-18T03:31:59.628Z,61.17
2023-03-18T03:34:27.937Z,61.17
2023-03-18T03:36:58.106Z,61.33
2023-03-18T03:39:26.986Z,61.37
2023-03-18T03:41:57.524Z,61.20
2023-03-18T03:44:24.953Z,61.24
2023-03-18T03:46:57.188Z,61.28
2023-03-18T03:49:26.699Z,61.28
2023-03-18T03:51:54.219Z,61.28
2023-03-18T03:54:21.876Z,61.22
2023-03-18T03:56:50.236Z,61.28
2023-03-18T03:59:19.501Z,61.29
2023-03-18T04:01:47.456Z,61.31
2023-03-18T04:04:16.534Z,61.29
2023-03-18T04:06:46.412Z,61.33
2023-03-18T04:09:14.208Z,61.49
2023-03-18T04:11:44.081Z,61.43
2023-03-18T04:14:14.050Z,61.60
2023-03-18T04:16:41.367Z,61.56
2023-03-18T04:19:09.008Z,61.53
2023-03-18T04:21:37.455Z,61.41
2023-03-18T04:24:09.056Z,61.19
2023-03-18T04:26:36.690Z,61.54
2023-03-18T04:29:04.116Z,61.45
2023-03-18T04:31:32.590Z,61.89
2023-03-18T04:34:01.273Z,61.24
2023-03-18T04:36:28.849Z,61.69
2023-03-18T04:38:57.576Z,61.69
2023-03-18T04:41:25.331Z,62.19
2023-03-18T04:43:52.825Z,62.05
2023-03-18T04:46:22.206Z,62.13
2023-03-18T04:48:50.309Z,62.41
2023-03-18T04:51:17.789Z,62.18
2023-03-18T04:53:45.090Z,62.55
2023-03-18T04:56:13.314Z,62.51
2023-03-18T04:58:40.820Z,62.18
2023-03-18T05:01:08.090Z,62.82
2023-03-18T05:03:35.595Z,62.29
2023-03-18T05:06:03.192Z,62.48
2023-03-18T05:08:30.686Z,62.64
2023-03-18T05:10:58.280Z,62.66
2023-03-18T05:13:26.178Z,62.92
2023-03-18T05:15:54.339Z,62.82
2023-03-18T05:18:21.808Z,63.19
2023-03-18T05:20:49.470Z,62.57
2023-03-18T05:23:17.980Z,62.92
2023-03-18T05:25:51.438Z,62.79
2023-03-18T05:28:19.124Z,62.92
2023-03-18T05:30:47.879Z,63.06
2023-03-18T05:33:17.345Z,62.77
2023-03-18T05:35:45.045Z,63.01
2023-03-18T05:38:13.561Z,62.85
2023-03-18T05:40:41.362Z,63.22
2023-03-18T05:43:10.812Z,63.20
2023-03-18T05:45:40.482Z,63.02
2023-03-18T05:48:08.650Z,63.33
2023-03-18T05:50:41.719Z,62.97
2023-03-18T05:53:11.619Z,63.25
2023-03-18T05:55:41.895Z,63.45
2023-03-18T05:58:09.836Z,63.44
2023-03-18T06:00:38.246Z,63.92
2023-03-18T06:03:06.438Z,63.67
2023-03-18T06:05:34.483Z,63.52
2023-03-18T06:08:03.827Z,64.05
2023-03-18T06:10:32.669Z,63.40
2023-03-18T06:13:01.161Z,63.84
2023-03-18T06:15:29.380Z,64.31
2023-03-18T06:17:59.955Z,63.77
2023-03-18T06:20:27.242Z,63.67
2023-03-18T06:22:54.822Z,63.51
2023-03-18T06:25:22.697Z,63.83
2023-03-18T06:27:51.369Z,64.00
2023-03-18T06:30:19.905Z,63.36
2023-03-18T06:32:47.963Z,63.00
2023-03-18T06:35:15.916Z,63.53
2023-03-18T06:37:44.013Z,62.77
2023-03-18T06:40:13.151Z,62.20
2023-03-18T06:42:41.803Z,61.94
2023-03-18T06:45:10.739Z,61.76
2023-03-18T06:47:38.853Z,61.66
2023-03-18T06:50:06.585Z,61.61
2023-03-18T06:52:38.711Z,61.03
2023-03-18T06:55:09.852Z,60.77
2023-03-18T06:57:37.302Z,60.61
2023-03-18T07:00:05.937Z,60.35
2023-03-18T07:02:35.963Z,60.25
2023-03-18T07:05:05.069Z,60.39
2023-03-18T07:07:32.960Z,59.95
2023-03-18T07:10:01.054Z,59.39
2023-03-18T07:12:29.295Z,58.78
2023-03-18T07:14:57.168Z,57.82
2023-03-18T07:17:24.899Z,57.48
2023-03-18T07:19:52.566Z,56.40
2023-03-18T07:22:19.966Z,56.29
2023-03-18T07:24:48.725Z,56.01
2023-03-18T07:27:17.213Z,55.96
2023-03-18T07:29:45.741Z,55.51
2023-03-18T07:32:13.182Z,55.48
2023-03-18T07:34:40.844Z,55.13
2023-03-18T07:37:08.243Z,55.00
2023-03-18T07:39:35.908Z,54.61
2023-03-18T07:42:03.405Z,54.66
2023-03-18T07:44:30.769Z,54.25
2023-03-18T07:46:59.099Z,54.30
2023-03-18T07:49:26.451Z,54.28
2023-03-18T07:51:54.632Z,54.08
2023-03-18T07:54:24.353Z,54.01
2023-03-18T07:56:52.432Z,53.70
2023-03-18T07:59:21.012Z,53.64
2023-03-18T08:01:49.785Z,53.47
2023-03-18T08:04:18.438Z,52.96
2023-03-18T08:06:47.538Z,52.42
2023-03-18T08:09:16.500Z,51.79
2023-03-18T08:12:21.991Z,51.33
2023-03-18T08:15:09.719Z,50.98
2023-03-18T08:18:36.575Z,49.44
2023-03-18T08:21:06.550Z,49.22
2023-03-18T08:23:34.411Z,49.14
2023-03-18T08:26:05.469Z,48.59
2023-03-18T08:28:40.282Z,48.72
2023-03-18T08:31:10.641Z,48.64
2023-03-18T08:33:39.366Z,47.57
2023-03-18T08:36:09.334Z,46.82
2023-03-18T08:38:36.698Z,46.44
2023-03-18T08:41:05.096Z,43.97
2023-03-18T08:43:33.318Z,45.98
2023-03-18T08:46:01.244Z,44.82
2023-03-18T08:48:29.198Z,44.83
2023-03-18T08:50:57.194Z,44.93
2023-03-18T08:53:24.708Z,44.27
2023-03-18T08:55:53.818Z,42.86
2023-03-18T08:58:21.233Z,42.45
2023-03-18T09:00:50.843Z,41.48
2023-03-18T09:03:19.397Z,41.68
2023-03-18T09:05:49.903Z,41.03
2023-03-18T09:08:17.460Z,39.24
2023-03-18T09:11:04.819Z,39.34
2023-03-18T09:13:32.485Z,38.79
2023-03-18T09:16:01.180Z,38.02
2023-03-18T09:18:29.795Z,36.76
2023-03-18T09:20:57.818Z,35.78
2023-03-18T09:23:28.060Z,35.65
2023-03-18T09:25:59.005Z,35.84
2023-03-18T09:28:27.024Z,34.02
2023-03-18T09:30:56.238Z,35.61
2023-03-18T09:33:26.305Z,35.54
2023-03-18T09:35:54.444Z,34.72
2023-03-18T09:38:25.845Z,33.38
2023-03-18T09:41:13.101Z,33.24
2023-03-18T09:44:04.088Z,31.94
2023-03-18T09:46:58.768Z,32.83
2023-03-18T09:49:43.639Z,32.99
2023-03-18T09:52:28.620Z,31.93
2023-03-18T09:55:05.500Z,30.42
2023-03-18T09:57:55.861Z,32.24
2023-03-18T10:00:39.349Z,32.13
2023-03-18T10:03:38.045Z,29.45
2023-03-18T10:06:19.375Z,30.73
2023-03-18T10:09:11.907Z,31.58
2023-03-18T10:11:48.964Z,30.77
2023-03-18T10:14:24.707Z,30.73
2023-03-18T10:17:09.784Z,28.16
2023-03-18T10:19:38.194Z,30.07
2023-03-18T10:22:35.342Z,29.88
2023-03-18T10:25:23.210Z,29.64
2023-03-18T10:28:28.031Z,27.78
2023-03-18T10:31:30.414Z,27.76
2023-03-18T10:34:23.789Z,28.73
2023-03-18T10:37:22.909Z,28.38
2023-03-18T10:39:55.709Z,27.63
2023-03-18T10:42:37.527Z,27.96
2023-03-18T10:45:27.689Z,27.88
2023-03-18T10:48:13.372Z,27.38
2023-03-18T10:50:52.007Z,26.79
2023-03-18T10:53:29.514Z,26.54
2023-03-18T10:56:07.696Z,27.33
2023-03-18T10:58:37.471Z,27.42
2023-03-18T11:01:08.394Z,27.44
2023-03-18T11:04:01.837Z,26.69
2023-03-18T11:06:42.188Z,27.43
2023-03-18T11:09:13.922Z,27.91
2023-03-18T11:11:45.818Z,25.91
2023-03-18T11:14:23.882Z,26.83
2023-03-18T11:17:22.815Z,26.14
2023-03-18T11:20:01.500Z,25.75
2023-03-18T11:22:30.824Z,25.59
2023-03-18T11:25:33.800Z,26.10
2023-03-18T11:28:10.213Z,25.03
2023-03-18T11:31:15.372Z,25.41
2023-03-18T11:34:29.104Z,25.43
2023-03-18T11:37:06.964Z,25.28
2023-03-18T11:40:20.845Z,23.84
2023-03-18T11:42:56.697Z,24.43
2023-03-18T11:45:30.321Z,24.22
2023-03-18T11:48:41.828Z,24.41
2023-03-18T11:51:42.354Z,23.71
2023-03-18T11:54:56.361Z,24.22
2023-03-18T11:58:06.393Z,24.18
2023-03-18T12:01:18.581Z,23.30
2023-03-18T12:04:30.755Z,23.89
2023-03-18T12:08:03.503Z,23.14
2023-03-18T12:11:31.909Z,24.15
2023-03-18T12:14:59.735Z,22.92
2023-03-18T12:18:45.275Z,23.33
2023-03-18T12:22:01.235Z,23.79
2023-03-18T12:25:19.144Z,23.38
2023-03-18T12:28:38.745Z,23.41
2023-03-18T12:32:16.018Z,23.17
2023-03-18T12:36:15.268Z,23.57
2023-03-18T12:39:56.172Z,23.65
2023-03-18T12:43:41.839Z,24.72
2023-03-18T12:46:51.760Z,24.17
2023-03-18T12:50:21.504Z,24.23
2023-03-18T12:53:54.525Z,23.75
2023-03-18T12:57:44.514Z,24.28
2023-03-18T13:01:31.674Z,24.64
2023-03-18T13:05:03.260Z,24.53
2023-03-18T13:08:30.212Z,24.96
2023-03-18T13:12:03.217Z,23.81
2023-03-18T13:15:16.283Z,23.76
2023-03-18T13:18:52.374Z,23.65
2023-03-18T13:22:20.083Z,23.99
2023-03-18T13:25:46.399Z,24.32
2023-03-18T13:28:57.327Z,24.64
2023-03-18T13:32:09.764Z,23.88
2023-03-18T13:35:06.398Z,23.90
2023-03-18T13:38:18.863Z,23.48
2023-03-18T13:41:35.837Z,23.76
2023-03-18T13:45:02.890Z,24.04
2023-03-18T13:48:39.500Z,24.21
2023-03-18T13:51:46.914Z,24.43
2023-03-18T13:55:13.670Z,23.65
2023-03-18T13:58:57.357Z,23.73
2023-03-18T14:01:30.715Z,23.67
2023-03-18T14:04:35.383Z,24.12
2023-03-18T14:08:17.065Z,23.48
2023-03-18T14:11:39.028Z,24.58
2023-03-18T14:15:21.920Z,24.12
2023-03-18T14:18:42.460Z,24.56
2023-03-18T14:22:25.106Z,24.97
2023-03-18T14:25:31.809Z,24.97
2023-03-18T14:28:59.835Z,24.97
2023-03-18T14:32:01.691Z,25.98
2023-03-18T14:34:55.290Z,25.79
2023-03-18T14:38:16.911Z,25.80
2023-03-18T14:41:36.339Z,26.29
2023-03-18T14:44:50.013Z,26.18
2023-03-18T14:48:08.974Z,26.30
2023-03-18T14:51:39.710Z,26.41
2023-03-18T14:54:52.778Z,26.26
2023-03-18T14:58:20.450Z,26.33
2023-03-18T15:01:50.047Z,27.39
2023-03-18T15:05:01.425Z,27.07
2023-03-18T15:08:23.004Z,27.01
2023-03-18T15:11:52.044Z,26.78
2023-03-18T15:15:01.841Z,27.20
2023-03-18T15:17:54.282Z,27.40
2023-03-18T15:21:14.811Z,27.10
2023-03-18T15:24:43.552Z,26.81
2023-03-18T15:27:56.596Z,27.63
2023-03-18T15:31:23.646Z,27.62
2023-03-18T15:35:03.889Z,27.34
2023-03-18T15:37:54.724Z,27.20
2023-03-18T15:41:03.960Z,28.02
2023-03-18T15:44:32.109Z,27.82
2023-03-18T15:48:08.428Z,27.68
2023-03-18T15:52:14.080Z,28.15
2023-03-18T15:55:41.100Z,28.64
2023-03-18T15:59:09.304Z,28.57
2023-03-18T16:02:56.032Z,29.00
2023-03-18T16:06:49.404Z,28.86
2023-03-18T16:10:16.532Z,28.94
2023-03-18T16:14:04.703Z,28.90
2023-03-18T16:17:49.660Z,29.43
2023-03-18T16:21:16.962Z,29.81
2023-03-18T16:24:27.679Z,30.21
2023-03-18T16:28:01.597Z,30.00
2023-03-18T16:31:29.856Z,30.34
2023-03-18T16:35:05.428Z,30.79
2023-03-18T16:38:00.286Z,31.25
2023-03-18T16:41:34.552Z,32.09
2023-03-18T16:44:22.984Z,32.31
2023-03-18T16:47:53.265Z,32.45
2023-03-18T16:51:22.074Z,32.51
2023-03-18T16:54:49.351Z,33.08
2023-03-18T16:58:15.310Z,33.49
2023-03-18T17:01:15.511Z,33.90
2023-03-18T17:04:12.551Z,34.23
2023-03-18T17:07:20.441Z,34.32
2023-03-18T17:10:49.824Z,34.72
2023-03-18T17:14:29.665Z,34.96
2023-03-18T17:17:42.675Z,35.38
2023-03-18T17:20:55.038Z,36.09
2023-03-18T17:24:26.887Z,36.29
2023-03-18T17:27:37.745Z,36.57
2023-03-18T17:31:04.899Z,36.47
2023-03-18T17:34:15.239Z,36.99
2023-03-18T17:37:30.051Z,37.19
2023-03-18T17:40:36.841Z,37.57
2023-03-18T17:44:04.418Z,38.15
2023-03-18T17:47:14.712Z,38.76
2023-03-18T17:50:22.669Z,38.94
2023-03-18T17:53:40.721Z,39.19
2023-03-18T17:57:07.995Z,39.63
2023-03-18T18:00:17.592Z,39.84
2023-03-18T18:03:29.812Z,40.12
2023-03-18T18:06:44.547Z,40.43
2023-03-18T18:09:44.236Z,40.92
2023-03-18T18:13:22.551Z,41.07
2023-03-18T18:16:31.020Z,41.59
2023-03-18T18:19:38.616Z,41.90
2023-03-18T18:23:06.158Z,41.96
2023-03-18T18:26:14.035Z,42.48
2023-03-18T18:29:28.016Z,42.90
2023-03-18T18:32:36.053Z,42.90
2023-03-18T18:35:51.085Z,42.87
2023-03-18T18:39:00.782Z,43.43
2023-03-18T18:42:08.912Z,43.58
2023-03-18T18:45:32.694Z,43.73
2023-03-18T18:48:44.436Z,44.05
2023-03-18T18:52:17.628Z,44.24
2023-03-18T18:55:52.203Z,44.71
2023-03-18T18:59:00.315Z,45.18
2023-03-18T19:02:17.635Z,45.29
2023-03-18T19:06:05.704Z,45.66
2023-03-18T19:09:36.836Z,45.86
2023-03-18T19:13:02.896Z,45.96
2023-03-18T19:15:56.253Z,46.25
2023-03-18T19:19:14.985Z,46.53
2023-03-18T19:22:23.418Z,46.94
2023-03-18T19:25:22.434Z,46.58
2023-03-18T19:29:03.340Z,46.76
2023-03-18T19:32:30.590Z,47.52
2023-03-18T19:36:01.367Z,47.57
2023-03-18T19:38:58.171Z,48.08
2023-03-18T19:41:58.767Z,48.52
2023-03-18T19:44:49.691Z,48.71
2023-03-18T19:48:05.299Z,48.81
2023-03-18T19:51:09.186Z,49.06
2023-03-18T19:54:00.297Z,49.32
2023-03-18T19:57:29.532Z,49.49
2023-03-18T20:00:43.683Z,49.48
2023-03-18T20:03:41.804Z,49.80
2023-03-18T20:07:09.494Z,49.90
2023-03-18T20:10:24.168Z,50.26
2023-03-18T20:13:35.577Z,50.64
2023-03-18T20:17:03.145Z,50.83
2023-03-18T20:20:13.611Z,51.10
2023-03-18T20:23:12.155Z,51.08
2023-03-18T20:26:59.782Z,51.27
2023-03-18T20:29:45.972Z,51.60
2023-03-18T20:32:25.343Z,51.81
2023-03-18T20:35:36.742Z,52.00
2023-03-18T20:39:03.804Z,52.46
2023-03-18T20:42:16.464Z,52.45
2023-03-18T20:45:27.383Z,52.59
2023-03-18T20:48:35.022Z,52.69
2023-03-18T20:51:51.294Z,53.26
2023-03-18T20:54:37.293Z,53.46
2023-03-18T20:57:26.260Z,53.52
2023-03-18T21:00:02.218Z,53.56
2023-03-18T21:02:38.154Z,53.64
2023-03-18T21:05:32.597Z,53.69
2023-03-18T21:08:41.885Z,54.21
2023-03-18T21:11:31.699Z,54.27
2023-03-18T21:14:14.458Z,54.52
2023-03-18T21:17:04.364Z,54.67
2023-03-18T21:19:52.745Z,54.68
2023-03-18T21:22:32.940Z,54.98
2023-03-18T21:25:09.112Z,55.00
2023-03-18T21:27:39.842Z,54.69
2023-03-18T21:30:15.917Z,55.31
2023-03-18T21:32:51.969Z,55.64
2023-03-18T21:35:24.231Z,55.61
2023-03-18T21:37:55.445Z,55.94
2023-03-18T21:40:49.397Z,56.09
2023-03-18T21:44:18.732Z,56.18
2023-03-18T21:47:10.170Z,56.39
2023-03-18T21:49:38.167Z,56.64
2023-03-18T21:52:06.750Z,56.72
2023-03-18T21:54:46.452Z,56.63
2023-03-18T21:57:35.274Z,56.76
2023-03-18T22:00:12.775Z,56.91
2023-03-18T22:02:48.388Z,56.78
2023-03-18T22:05:43.449Z,57.18
2023-03-18T22:08:11.037Z,57.35
2023-03-18T22:10:41.314Z,57.89
2023-03-18T22:13:19.264Z,57.30
2023-03-18T22:15:53.120Z,57.92
2023-03-18T22:18:43.944Z,57.97
2023-03-18T22:21:33.612Z,58.06
2023-03-18T22:24:08.682Z,58.24
2023-03-18T22:26:36.585Z,58.49
2023-03-18T22:29:06.735Z,58.36
2023-03-18T22:31:34.079Z,58.43
2023-03-18T22:34:07.782Z,58.61
2023-03-18T22:36:39.107Z,58.73
2023-03-18T22:39:21.978Z,58.88
2023-03-18T22:41:50.433Z,59.36
2023-03-18T22:44:25.074Z,58.89
2023-03-18T22:46:57.011Z,59.23
2023-03-18T22:49:26.288Z,59.25
2023-03-18T22:51:55.764Z,59.14
2023-03-18T22:54:25.340Z,59.27
2023-03-18T22:56:55.754Z,59.55
2023-03-18T22:59:37.076Z,59.45
2023-03-18T23:02:15.471Z,59.42
2023-03-18T23:04:44.410Z,59.77
2023-03-18T23:07:30.360Z,59.72
2023-03-18T23:10:00.385Z,60.49
2023-03-18T23:12:31.521Z,60.16
2023-03-18T23:15:01.638Z,60.66
2023-03-18T23:17:29.366Z,60.56
2023-03-18T23:20:01.118Z,60.75
2023-03-18T23:22:37.320Z,61.04
2023-03-18T23:25:06.162Z,60.85
2023-03-18T23:27:35.656Z,61.44
2023-03-18T23:30:04.288Z,61.30
2023-03-18T23:32:32.545Z,61.18
2023-03-18T23:35:00.305Z,61.55
2023-03-18T23:37:29.004Z,61.52
2023-03-18T23:40:06.283Z,61.55
2023-03-18T23:42:35.017Z,61.63
2023-03-18T23:45:06.408Z,61.60
2023-03-18T23:47:34.283Z,61.68
2023-03-18T23:50:04.887Z,61.65
2023-03-18T23:52:37.314Z,61.98
2023-03-18T23:55:22.386Z,61.90
2023-03-18T23:57:55.664Z,62.09
